Time,TemperatureF,DewpointF,PressureIn,WindDirection,WindDirectionDegrees,WindSpeedMPH,WindSpeedGustMPH,Humidity,HourlyPrecipIn,Conditions,Clouds,dailyrainin,SoftwareType,DateUTC
2013-09-15 00:01:00,76.5,73.3,29.93,ESE,118,0.0,0.0,90,0.00,,FEW080,0.58,VWS V14.01,2013-09-15 05:01:00,
2013-09-15 00:06:00,76.3,73.2,29.94,ESE,118,0.0,0.0,90,0.00,,FEW080,0.00,VWS V14.01,2013-09-15 05:06:00,
2013-09-15 00:11:00,76.3,73.2,29.94,ESE,118,0.0,0.0,90,0.00,,FEW080,0.00,VWS V14.01,2013-09-15 05:11:00,
2013-09-15 00:16:00,76.1,73.0,29.94,ESE,118,0.0,0.0,90,0.00,,FEW080,0.00,VWS V14.01,2013-09-15 05:16:00,
2013-09-15 00:21:00,76.3,73.2,29.94,ESE,118,0.0,0.0,90,0.00,,FEW080,0.00,VWS V14.01,2013-09-15 05:21:00,
2013-09-15 00:26:00,76.5,73.3,29.94,ESE,118,0.0,0.0,90,0.00,,FEW080,0.00,VWS V14.01,2013-09-15 05:26:00,
2013-09-15 00:31:00,76.7,73.6,29.94,ESE,118,0.0,0.0,90,0.00,,FEW080,0.00,VWS V14.01,2013-09-15 05:31:00,
2013-09-15 00:36:00,76.7,73.6,29.93,ESE,118,0.0,0.0,90,0.00,,FEW080,0.00,VWS V14.01,2013-09-15 05:36:00,
2013-09-15 00:41:00,76.7,73.6,29.93,ESE,118,0.0,0.0,90,0.00,,FEW080,0.00,VWS V14.01,2013-09-15 05:41:00,
2013-09-15 00:46:00,76.5,73.3,29.93,ESE,118,0.0,0.0,90,0.00,,FEW080,0.00,VWS V14.01,2013-09-15 05:46:00,
2013-09-15 00:51:00,76.3,73.2,29.93,ESE,118,0.0,0.0,90,0.00,,FEW080,0.00,VWS V14.01,2013-09-15 05:51:00,
2013-09-15 00:56:00,76.5,73.3,29.93,ESE,118,0.0,0.0,90,0.00,,CLR,0.00,VWS V14.01,2013-09-15 05:56:00,
2013-09-15 01:01:00,76.5,73.3,29.93,ESE,118,0.0,0.0,90,0.00,,CLR,0.00,VWS V14.01,2013-09-15 06:01:00,
2013-09-15 01:06:00,76.3,73.2,29.93,ESE,118,0.0,0.0,90,0.00,,CLR,0.00,VWS V14.01,2013-09-15 06:06:00,
2013-09-15 01:11:00,76.3,73.2,29.93,ESE,118,0.0,0.0,90,0.00,,CLR,0.00,VWS V14.01,2013-09-15 06:11:00,
2013-09-15 01:16:00,76.3,73.2,29.93,ESE,118,0.0,0.0,90,0.00,,CLR,0.00,VWS V14.01,2013-09-15 06:16:00,
2013-09-15 01:21:00,76.1,73.0,29.93,ESE,118,0.0,0.0,90,0.00,,CLR,0.00,VWS V14.01,2013-09-15 06:21:00,
2013-09-15 01:26:00,76.3,73.2,29.93,ESE,118,0.0,0.0,90,0.00,,CLR,0.00,VWS V14.01,2013-09-15 06:26:00,
2013-09-15 01:31:00,76.3,73.2,29.93,ESE,118,0.0,0.0,90,0.00,,CLR,0.00,VWS V14.01,2013-09-15 06:31:00,
2013-09-15 01:36:00,76.3,73.2,29.93,ESE,118,0.0,0.0,90,0.00,,CLR,0.00,VWS V14.01,2013-09-15 06:36:00,
2013-09-15 01:41:00,76.3,73.2,29.93,ESE,118,0.0,0.0,90,0.00,,CLR,0.00,VWS V14.01,2013-09-15 06:41:00,
2013-09-15 01:46:00,76.3,73.2,29.93,ESE,118,0.0,0.0,90,0.00,,CLR,0.00,VWS V14.01,2013-09-15 06:46:00,
2013-09-15 01:51:00,76.3,73.2,29.93,ESE,118,0.0,0.0,90,0.00,,CLR,0.00,VWS V14.01,2013-09-15 06:51:00,
2013-09-15 01:56:00,76.3,73.2,29.93,ESE,118,0.0,0.0,90,0.00,,CLR,0.00,VWS V14.01,2013-09-15 06:56:00,
2013-09-15 02:01:00,76.3,73.2,29.93,ESE,118,0.0,0.0,90,0.00,,CLR,0.00,VWS V14.01,2013-09-15 07:01:00,
2013-09-15 02:06:00,76.5,73.3,29.93,ESE,118,0.0,0.0,90,0.00,,CLR,0.00,VWS V14.01,2013-09-15 07:06:00,
2013-09-15 02:11:00,76.3,73.2,29.93,ESE,118,0.0,0.0,90,0.00,,CLR,0.00,VWS V14.01,2013-09-15 07:11:00,
2013-09-15 02:16:00,76.1,73.0,29.93,ESE,118,0.0,0.0,90,0.00,,CLR,0.00,VWS V14.01,2013-09-15 07:16:00,
2013-09-15 02:21:00,76.0,72.9,29.93,ESE,118,0.0,0.0,90,0.00,,CLR,0.00,VWS V14.01,2013-09-15 07:21:00,
2013-09-15 02:26:00,76.0,72.9,29.93,ESE,118,0.0,0.0,90,0.00,,CLR,0.00,VWS V14.01,2013-09-15 07:26:00,
2013-09-15 02:31:00,76.0,72.9,29.93,ESE,118,0.0,0.0,90,0.00,,CLR,0.00,VWS V14.01,2013-09-15 07:31:00,
2013-09-15 02:36:00,76.0,72.9,29.92,ESE,118,0.0,0.0,90,0.00,,CLR,0.00,VWS V14.01,2013-09-15 07:36:00,
2013-09-15 02:41:00,76.0,72.9,29.92,ESE,118,0.0,0.0,90,0.00,,CLR,0.00,VWS V14.01,2013-09-15 07:41:00,
2013-09-15 02:46:00,75.8,72.7,29.92,ESE,118,0.0,0.0,90,0.00,,CLR,0.00,VWS V14.01,2013-09-15 07:46:00,
2013-09-15 02:51:00,75.8,72.7,29.93,ESE,118,0.0,0.0,90,0.00,,CLR,0.00,VWS V14.01,2013-09-15 07:51:00,
2013-09-15 02:56:00,75.8,72.7,29.93,ESE,118,0.0,0.0,90,0.00,,CLR,0.00,VWS V14.01,2013-09-15 07:56:00,
2013-09-15 03:01:00,75.8,72.7,29.93,ESE,118,0.0,0.0,90,0.00,,CLR,0.00,VWS V14.01,2013-09-15 08:01:00,
2013-09-15 03:06:00,75.8,72.7,29.92,ESE,118,0.0,0.0,90,0.00,,CLR,0.00,VWS V14.01,2013-09-15 08:06:00,
2013-09-15 03:11:00,75.6,72.5,29.92,ESE,118,0.0,0.0,90,0.00,,CLR,0.00,VWS V14.01,2013-09-15 08:11:00,
2013-09-15 03:16:00,75.6,72.5,29.92,ESE,118,0.0,0.0,90,0.00,,CLR,0.00,VWS V14.01,2013-09-15 08:16:00,
2013-09-15 03:21:00,75.6,72.5,29.92,ESE,118,0.0,0.0,90,0.00,,CLR,0.00,VWS V14.01,2013-09-15 08:21:00,
2013-09-15 03:26:00,75.6,72.5,29.92,ESE,118,0.0,0.0,90,0.00,,CLR,0.00,VWS V14.01,2013-09-15 08:26:00,
2013-09-15 03:31:00,75.6,72.5,29.92,ESE,118,0.0,0.0,90,0.00,,CLR,0.00,VWS V14.01,2013-09-15 08:31:00,
2013-09-15 03:36:00,75.4,72.3,29.92,ESE,118,0.0,0.0,90,0.00,,CLR,0.00,VWS V14.01,2013-09-15 08:36:00,
2013-09-15 03:41:00,75.3,72.2,29.92,ESE,118,0.0,0.0,90,0.00,,CLR,0.00,VWS V14.01,2013-09-15 08:41:00,
2013-09-15 03:46:00,75.3,72.2,29.92,ESE,118,0.0,0.0,90,0.00,,CLR,0.00,VWS V14.01,2013-09-15 08:46:00,
2013-09-15 03:51:00,75.3,72.2,29.92,ESE,118,0.0,0.0,90,0.00,,CLR,0.00,VWS V14.01,2013-09-15 08:51:00,
2013-09-15 03:56:00,75.3,72.2,29.92,ESE,118,0.0,0.0,90,0.00,,CLR,0.00,VWS V14.01,2013-09-15 08:56:00,
2013-09-15 04:01:00,75.1,72.0,29.92,ESE,118,0.0,0.0,90,0.00,,CLR,0.00,VWS V14.01,2013-09-15 09:01:00,
2013-09-15 04:06:00,75.1,72.0,29.92,ESE,118,0.0,0.0,90,0.00,,CLR,0.00,VWS V14.01,2013-09-15 09:06:00,
2013-09-15 04:11:00,75.1,72.0,29.92,ESE,118,0.0,0.0,90,0.00,,CLR,0.00,VWS V14.01,2013-09-15 09:11:00,
2013-09-15 04:16:00,74.9,72.1,29.92,ESE,118,0.0,0.0,91,0.00,,CLR,0.00,VWS V14.01,2013-09-15 09:16:00,
2013-09-15 04:21:00,74.9,72.1,29.92,ESE,118,0.0,0.0,91,0.00,,CLR,0.00,VWS V14.01,2013-09-15 09:21:00,
2013-09-15 04:26:00,74.7,71.9,29.92,ESE,118,0.0,0.0,91,0.00,,CLR,0.00,VWS V14.01,2013-09-15 09:26:00,
2013-09-15 04:31:00,74.7,71.9,29.92,ESE,118,0.0,0.0,91,0.00,,CLR,0.00,VWS V14.01,2013-09-15 09:31:00,
2013-09-15 04:36:00,74.7,71.9,29.92,ESE,118,0.0,0.0,91,0.00,,CLR,0.00,VWS V14.01,2013-09-15 09:36:00,
2013-09-15 04:41:00,74.7,71.9,29.92,ESE,118,0.0,0.0,91,0.00,,CLR,0.00,VWS V14.01,2013-09-15 09:41:00,
2013-09-15 04:46:00,74.6,71.8,29.92,ESE,118,0.0,0.0,91,0.00,,CLR,0.00,VWS V14.01,2013-09-15 09:46:00,
2013-09-15 04:51:00,74.6,71.8,29.92,ESE,118,0.0,0.0,91,0.00,,CLR,0.00,VWS V14.01,2013-09-15 09:51:00,
2013-09-15 04:56:00,74.6,71.8,29.92,ESE,118,0.0,0.0,91,0.00,,CLR,0.00,VWS V14.01,2013-09-15 09:56:00,
2013-09-15 05:01:00,74.6,71.8,29.92,ESE,118,0.0,0.0,91,0.00,,CLR,0.00,VWS V14.01,2013-09-15 10:01:00,
2013-09-15 05:06:00,74.6,71.8,29.93,ESE,118,0.0,0.0,91,0.00,,CLR,0.00,VWS V14.01,2013-09-15 10:06:00,
2013-09-15 05:11:00,74.7,71.9,29.93,ESE,118,0.0,0.0,91,0.00,,CLR,0.00,VWS V14.01,2013-09-15 10:11:00,
2013-09-15 05:16:00,74.6,71.8,29.93,ESE,118,0.0,0.0,91,0.00,,CLR,0.00,VWS V14.01,2013-09-15 10:16:00,
2013-09-15 05:21:00,74.6,71.8,29.93,ESE,118,0.0,0.0,91,0.00,,CLR,0.00,VWS V14.01,2013-09-15 10:21:00,
2013-09-15 05:26:00,74.6,71.8,29.93,ESE,118,0.0,0.0,91,0.00,,CLR,0.00,VWS V14.01,2013-09-15 10:26:00,
2013-09-15 05:31:00,74.6,71.8,29.93,ESE,118,0.0,0.0,91,0.00,,CLR,0.00,VWS V14.01,2013-09-15 10:31:00,
2013-09-15 05:36:00,74.6,72.1,29.93,ESE,118,0.0,0.0,92,0.00,,CLR,0.00,VWS V14.01,2013-09-15 10:36:00,
2013-09-15 05:41:00,74.6,72.1,29.93,ESE,117,1.0,3.0,92,0.00,,CLR,0.00,VWS V14.01,2013-09-15 10:41:00,
2013-09-15 05:46:00,74.4,71.9,29.93,ESE,111,0.0,0.0,92,0.00,,BKN019,0.00,VWS V14.01,2013-09-15 10:46:00,
2013-09-15 05:51:00,74.4,71.6,29.94,ESE,111,0.0,0.0,91,0.00,,BKN019,0.00,VWS V14.01,2013-09-15 10:51:00,
2013-09-15 05:56:00,74.4,71.6,29.94,ESE,108,3.0,3.0,91,0.00,,BKN019,0.00,VWS V14.01,2013-09-15 10:56:00,
2013-09-15 06:01:00,74.2,71.7,29.94,East,101,0.0,3.0,92,0.00,,BKN019,0.00,VWS V14.01,2013-09-15 11:01:00,
2013-09-15 06:06:00,74.2,71.4,29.94,East,101,0.0,0.0,91,0.00,,BKN019,0.00,VWS V14.01,2013-09-15 11:06:00,
2013-09-15 06:11:00,74.2,71.7,29.94,East,101,0.0,0.0,92,0.00,,BKN019,0.00,VWS V14.01,2013-09-15 11:11:00,
2013-09-15 06:16:00,74.2,71.7,29.94,East,101,0.0,0.0,92,0.00,,BKN019,0.00,VWS V14.01,2013-09-15 11:16:00,
2013-09-15 06:21:00,74.0,71.5,29.95,East,101,0.0,0.0,92,0.00,,BKN019,0.00,VWS V14.01,2013-09-15 11:21:00,
2013-09-15 06:26:00,74.0,71.5,29.95,East,84,0.0,0.0,92,0.00,,BKN019,0.00,VWS V14.01,2013-09-15 11:26:00,
2013-09-15 06:31:00,74.0,71.5,29.95,East,81,0.0,0.0,92,0.00,,BKN019,0.00,VWS V14.01,2013-09-15 11:31:00,
2013-09-15 06:36:00,74.0,71.5,29.95,East,81,0.0,0.0,92,0.00,,BKN019,0.00,VWS V14.01,2013-09-15 11:36:00,
2013-09-15 06:41:00,74.0,71.5,29.95,East,81,0.0,0.0,92,0.00,,BKN019,0.00,VWS V14.01,2013-09-15 11:41:00,
2013-09-15 06:46:00,74.0,71.5,29.95,East,81,0.0,0.0,92,0.00,,SCT019,0.00,VWS V14.01,2013-09-15 11:46:00,
2013-09-15 06:51:00,73.9,71.4,29.95,East,81,0.0,0.0,92,0.00,,SCT019,0.00,VWS V14.01,2013-09-15 11:51:00,
2013-09-15 06:56:00,73.9,71.4,29.95,East,81,2.0,4.0,92,0.00,,BKN019,0.00,VWS V14.01,2013-09-15 11:56:00,
2013-09-15 07:01:00,73.9,71.4,29.95,East,81,0.0,4.0,92,0.00,,BKN019,0.00,VWS V14.01,2013-09-15 12:01:00,
2013-09-15 07:06:00,73.9,71.4,29.96,East,80,0.0,0.0,92,0.00,,SCT016,0.00,VWS V14.01,2013-09-15 12:06:00,
2013-09-15 07:11:00,73.9,71.4,29.96,East,80,0.0,0.0,92,0.00,,SCT016,0.00,VWS V14.01,2013-09-15 12:11:00,
2013-09-15 07:16:00,73.7,71.2,29.96,East,80,0.0,0.0,92,0.00,,SCT016,0.00,VWS V14.01,2013-09-15 12:16:00,
2013-09-15 07:21:00,73.7,71.2,29.97,East,80,0.0,0.0,92,0.00,,SCT016,0.00,VWS V14.01,2013-09-15 12:21:00,
2013-09-15 07:26:00,73.7,71.2,29.97,East,80,0.0,0.0,92,0.00,,SCT016,0.00,VWS V14.01,2013-09-15 12:26:00,
2013-09-15 07:31:00,73.7,71.2,29.97,East,80,0.0,0.0,92,0.00,,SCT016,0.00,VWS V14.01,2013-09-15 12:31:00,
2013-09-15 07:36:00,73.7,71.2,29.97,East,80,0.0,0.0,92,0.00,,SCT016,0.00,VWS V14.01,2013-09-15 12:36:00,
2013-09-15 07:41:00,73.7,71.2,29.97,East,80,0.0,0.0,92,0.00,,SCT016,0.00,VWS V14.01,2013-09-15 12:41:00,
2013-09-15 07:46:00,73.7,71.2,29.97,East,80,0.0,0.0,92,0.00,,SCT016,0.00,VWS V14.01,2013-09-15 12:46:00,
2013-09-15 07:51:00,73.9,71.4,29.97,ENE,65,2.0,3.0,92,0.00,,SCT016,0.00,VWS V14.01,2013-09-15 12:51:00,
2013-09-15 07:56:00,73.9,71.4,29.97,ENE,65,0.0,0.0,92,0.00,,,0.00,VWS V14.01,2013-09-15 12:56:00,
2013-09-15 08:01:00,73.9,71.4,29.97,ENE,65,0.0,0.0,92,0.00,,,0.00,VWS V14.01,2013-09-15 13:01:00,
2013-09-15 08:06:00,73.9,71.4,29.97,ENE,65,0.0,0.0,92,0.00,,,0.00,VWS V14.01,2013-09-15 13:06:00,
2013-09-15 08:11:00,74.0,71.8,29.97,NE,53,0.0,0.0,93,0.00,,,0.00,VWS V14.01,2013-09-15 13:11:00,
2013-09-15 08:16:00,74.2,71.7,29.97,NNE,18,0.0,0.0,92,0.00,,,0.00,VWS V14.01,2013-09-15 13:16:00,
2013-09-15 08:21:00,74.2,71.7,29.99,North,5,0.0,0.0,92,0.00,,,0.00,VWS V14.01,2013-09-15 13:21:00,
2013-09-15 08:26:00,74.2,71.7,29.99,NNE,13,0.0,0.0,92,0.00,,,0.00,VWS V14.01,2013-09-15 13:26:00,
2013-09-15 08:31:00,74.4,71.9,29.99,NNE,13,0.0,0.0,92,0.00,,,0.00,VWS V14.01,2013-09-15 13:31:00,
2013-09-15 08:36:00,74.4,71.9,29.99,NNE,18,0.0,0.0,92,0.00,,,0.00,VWS V14.01,2013-09-15 13:36:00,
2013-09-15 08:41:00,74.7,72.2,29.99,North,5,0.0,0.0,92,0.00,,,0.00,VWS V14.01,2013-09-15 13:41:00,
2013-09-15 08:46:00,74.9,72.4,29.99,North,5,0.0,0.0,92,0.00,,,0.00,VWS V14.01,2013-09-15 13:46:00,
2013-09-15 08:51:00,75.1,72.6,29.99,NNE,12,0.0,0.0,92,0.00,,,0.00,VWS V14.01,2013-09-15 13:51:00,
2013-09-15 08:56:00,75.3,72.8,29.99,NNE,13,0.0,0.0,92,0.00,,BKN016,0.00,VWS V14.01,2013-09-15 13:56:00,
2013-09-15 09:01:00,75.4,72.9,29.99,North,10,0.0,3.0,92,0.00,,BKN016,0.00,VWS V14.01,2013-09-15 14:01:00,
2013-09-15 09:06:00,75.8,73.0,29.99,NNE,24,0.0,0.0,91,0.00,,BKN016,0.00,VWS V14.01,2013-09-15 14:06:00,
2013-09-15 09:11:00,76.1,73.3,29.99,NE,35,4.0,4.0,91,0.00,,SCT029,0.00,VWS V14.01,2013-09-15 14:11:00,
2013-09-15 09:16:00,76.3,73.5,29.99,NNE,26,0.0,0.0,91,0.00,,SCT029,0.00,VWS V14.01,2013-09-15 14:16:00,
2013-09-15 09:20:00,76.5,73.3,30.00,ENE,63,0.0,0.0,90,0.00,,BKN030,0.00,VWS V14.01,2013-09-15 14:20:00,
2013-09-15 09:25:00,76.7,73.6,30.00,NE,52,0.0,0.0,90,0.00,,BKN030,0.00,VWS V14.01,2013-09-15 14:25:00,
2013-09-15 09:30:00,77.0,73.5,30.00,NNE,13,0.0,5.0,89,0.00,,BKN030,0.00,VWS V14.01,2013-09-15 14:30:00,
2013-09-15 09:35:00,76.8,73.0,30.00,NNE,13,0.0,6.0,88,0.00,,BKN030,0.00,VWS V14.01,2013-09-15 14:35:00,
2013-09-15 09:36:00,76.8,73.0,30.00,NNE,13,0.0,6.0,88,0.00,,BKN030,0.00,VWS V14.01,2013-09-15 14:36:00,
2013-09-15 09:41:00,77.2,73.7,30.00,ENE,66,0.0,6.0,89,0.00,,BKN030,0.00,VWS V14.01,2013-09-15 14:41:00,
2013-09-15 09:46:00,77.6,73.8,30.00,NE,39,0.0,3.0,88,0.00,,BKN030,0.00,VWS V14.01,2013-09-15 14:46:00,
2013-09-15 09:51:00,78.1,73.9,30.00,NNE,12,4.0,5.0,87,0.00,,BKN030,0.00,VWS V14.01,2013-09-15 14:51:00,
2013-09-15 09:55:00,78.3,73.8,30.00,NNE,17,0.0,7.0,86,0.00,,BKN024,0.00,VWS V14.01,2013-09-15 14:55:00,
2013-09-15 09:56:00,78.3,73.8,30.00,NNE,17,0.0,7.0,86,0.00,,BKN024,0.00,VWS V14.01,2013-09-15 14:56:00,
2013-09-15 10:01:00,78.8,73.9,30.00,NW,323,1.0,7.0,85,0.00,,BKN024,0.00,VWS V14.01,2013-09-15 15:01:00,
2013-09-15 10:06:00,79.6,74.3,30.01,NNE,13,2.0,6.0,84,0.00,,BKN024,0.00,VWS V14.01,2013-09-15 15:06:00,
2013-09-15 10:11:00,80.1,74.5,30.01,ESE,121,0.0,6.0,83,0.00,,BKN024,0.00,VWS V14.01,2013-09-15 15:11:00,
2013-09-15 10:16:00,80.5,74.1,30.01,North,355,3.0,5.0,81,0.00,,SCT024,0.00,VWS V14.01,2013-09-15 15:16:00,
2013-09-15 10:21:00,80.7,74.0,30.02,East,96,3.0,5.0,80,0.00,,SCT024,0.00,VWS V14.01,2013-09-15 15:21:00,
2013-09-15 10:26:00,80.9,74.2,30.02,North,10,1.0,4.0,80,0.00,,SCT024,0.00,VWS V14.01,2013-09-15 15:26:00,
2013-09-15 10:31:00,81.2,74.1,30.02,ESE,119,2.0,7.0,79,0.00,,SCT024,0.00,VWS V14.01,2013-09-15 15:31:00,
2013-09-15 10:36:00,82.0,74.1,30.02,SE,128,3.0,5.0,77,0.00,,SCT024,0.00,VWS V14.01,2013-09-15 15:36:00,
2013-09-15 10:41:00,82.8,74.1,30.02,East,80,3.0,9.0,75,0.00,,BKN016,0.00,VWS V14.01,2013-09-15 15:41:00,
2013-09-15 10:46:00,83.0,73.9,30.02,SSE,148,5.0,9.0,74,0.00,,SCT016,0.00,VWS V14.01,2013-09-15 15:46:00,
2013-09-15 10:51:00,83.4,73.8,30.02,SSE,157,6.0,12.0,73,0.00,,SCT016,0.00,VWS V14.01,2013-09-15 15:51:00,
2013-09-15 10:56:00,83.2,73.2,30.02,ENE,73,4.0,11.0,72,0.00,,SCT026,0.00,VWS V14.01,2013-09-15 15:56:00,
2013-09-15 11:01:00,83.2,73.7,30.02,East,92,0.0,11.0,73,0.00,,SCT026,0.00,VWS V14.01,2013-09-15 16:01:00,
2013-09-15 11:06:00,83.2,73.7,30.02,ESE,105,0.0,0.0,73,0.00,,SCT026,0.00,VWS V14.01,2013-09-15 16:06:00,
2013-09-15 11:11:00,83.2,73.7,30.02,ESE,113,3.0,13.0,73,0.00,,SCT026,0.00,VWS V14.01,2013-09-15 16:11:00,
2013-09-15 11:16:00,83.2,73.2,30.02,ESE,123,9.0,12.0,72,0.00,,SCT026,0.00,VWS V14.01,2013-09-15 16:16:00,
2013-09-15 11:21:00,83.4,73.4,30.02,ESE,103,5.0,12.0,72,0.00,,SCT026,0.00,VWS V14.01,2013-09-15 16:21:00,
2013-09-15 11:25:00,83.6,73.6,30.02,ESE,104,0.0,0.0,72,0.00,,SCT026,0.00,VWS V14.01,2013-09-15 16:25:00,
2013-09-15 11:30:00,84.0,73.6,30.02,ESE,111,2.0,6.0,71,0.00,,SCT026,0.00,VWS V14.01,2013-09-15 16:30:00,
2013-09-15 11:35:00,84.1,73.3,30.02,ENE,67,0.0,11.0,70,0.00,,SCT026,0.00,VWS V14.01,2013-09-15 16:35:00,
2013-09-15 11:40:00,84.5,72.8,30.02,East,101,5.0,11.0,68,0.00,,SCT026,0.00,VWS V14.01,2013-09-15 16:40:00,
2013-09-15 11:45:00,84.7,72.5,30.02,SE,130,7.0,12.0,67,0.00,,SCT026,0.00,VWS V14.01,2013-09-15 16:45:00,
2013-09-15 11:50:00,85.3,72.7,30.02,East,86,0.0,12.0,66,0.00,,SCT026,0.00,VWS V14.01,2013-09-15 16:50:00,
2013-09-15 11:55:00,85.7,72.1,30.02,SE,128,6.0,9.0,64,0.00,,SCT043,0.00,VWS V14.01,2013-09-15 16:55:00,
2013-09-15 12:00:00,86.3,72.2,30.02,ENE,65,2.0,12.0,63,0.00,,SCT043,0.00,VWS V14.01,2013-09-15 17:00:00,
2013-09-15 12:05:00,86.3,71.8,30.01,ESE,103,0.0,0.0,62,0.00,,SCT043,0.00,VWS V14.01,2013-09-15 17:05:00,
2013-09-15 12:10:00,87.4,71.3,30.01,ESE,108,0.0,8.0,59,0.00,,SCT043,0.00,VWS V14.01,2013-09-15 17:10:00,
2013-09-15 12:15:00,87.6,71.5,30.01,ESE,118,9.0,9.0,59,0.00,,SCT043,0.00,VWS V14.01,2013-09-15 17:15:00,
2013-09-15 12:21:00,88.4,71.2,30.01,East,90,0.0,10.0,57,0.00,,SCT043,0.00,VWS V14.01,2013-09-15 17:21:00,
2013-09-15 12:26:00,88.4,70.7,30.01,SSE,159,1.0,7.0,56,0.00,,SCT043,0.00,VWS V14.01,2013-09-15 17:26:00,
2013-09-15 12:30:00,88.6,70.9,30.01,East,82,1.0,11.0,56,0.00,,SCT043,0.00,VWS V14.01,2013-09-15 17:30:00,
2013-09-15 12:36:00,88.6,70.9,30.01,NE,42,0.0,5.0,56,0.00,,SCT043,0.00,VWS V14.01,2013-09-15 17:36:00,
2013-09-15 12:41:00,89.0,71.3,30.01,East,85,5.0,5.0,56,0.00,,SCT043,0.00,VWS V14.01,2013-09-15 17:41:00,
2013-09-15 12:46:00,89.5,71.2,30.01,ESE,118,2.0,6.0,55,0.00,,SCT043,0.00,VWS V14.01,2013-09-15 17:46:00,
2013-09-15 12:50:00,90.1,70.7,30.00,NNE,27,0.0,7.0,53,0.00,,SCT043,0.00,VWS V14.01,2013-09-15 17:50:00,
2013-09-15 12:55:00,90.3,70.3,30.00,East,90,3.0,7.0,52,0.00,,BKN043,0.00,VWS V14.01,2013-09-15 17:55:00,
2013-09-15 13:00:00,90.3,70.3,30.00,SE,142,6.0,9.0,52,0.00,,BKN043,0.00,VWS V14.01,2013-09-15 18:00:00,
2013-09-15 13:05:00,90.1,70.1,30.00,ESE,109,3.0,9.0,52,0.00,,BKN043,0.00,VWS V14.01,2013-09-15 18:05:00,
2013-09-15 13:10:00,90.3,69.2,30.00,ESE,119,3.0,10.0,50,0.00,,BKN043,0.00,VWS V14.01,2013-09-15 18:10:00,
2013-09-15 13:15:00,90.1,69.6,30.00,ESE,106,2.0,4.0,51,0.00,,BKN043,0.00,VWS V14.01,2013-09-15 18:15:00,
2013-09-15 13:20:00,90.1,69.6,29.99,East,91,0.0,9.0,51,0.00,,BKN043,0.00,VWS V14.01,2013-09-15 18:20:00,
2013-09-15 13:25:00,90.3,69.7,29.99,East,84,4.0,9.0,51,0.00,,BKN043,0.00,VWS V14.01,2013-09-15 18:25:00,
2013-09-15 13:30:00,90.3,69.7,29.99,SE,127,0.0,10.0,51,0.00,,BKN043,0.00,VWS V14.01,2013-09-15 18:30:00,
2013-09-15 13:35:00,90.5,69.3,29.98,East,86,0.0,6.0,50,0.00,,BKN043,0.00,VWS V14.01,2013-09-15 18:35:00,
2013-09-15 13:40:00,90.1,69.6,29.98,SE,138,0.0,13.0,51,0.00,,BKN043,0.00,VWS V14.01,2013-09-15 18:40:00,
2013-09-15 13:45:00,89.9,69.4,29.98,ESE,122,4.0,10.0,51,0.00,,BKN043,0.00,VWS V14.01,2013-09-15 18:45:00,
2013-09-15 13:50:00,90.3,69.7,29.97,East,96,3.0,11.0,51,0.00,,BKN043,0.00,VWS V14.01,2013-09-15 18:50:00,
2013-09-15 13:55:00,90.5,69.3,29.97,ESE,109,3.0,5.0,50,0.00,,SCT044,0.00,VWS V14.01,2013-09-15 18:55:00,
2013-09-15 14:00:00,90.5,68.8,29.97,ESE,110,2.0,12.0,49,0.00,,SCT044,0.00,VWS V14.01,2013-09-15 19:00:00,
2013-09-15 14:05:00,90.3,69.7,29.97,SSE,159,13.0,13.0,51,0.00,,SCT044,0.00,VWS V14.01,2013-09-15 19:05:00,
2013-09-15 14:10:00,90.1,69.6,29.97,SE,128,5.0,13.0,51,0.00,,SCT044,0.00,VWS V14.01,2013-09-15 19:10:00,
2013-09-15 14:15:00,90.3,68.6,29.97,ESE,119,3.0,10.0,49,0.00,,SCT044,0.00,VWS V14.01,2013-09-15 19:15:00,
2013-09-15 14:18:00,90.7,68.9,29.96,SE,125,7.0,10.0,49,0.00,,SCT044,0.00,VWS V14.01,2013-09-15 19:18:00,
2013-09-15 14:23:00,91.2,68.8,29.96,ESE,115,2.0,12.0,48,0.00,,SCT044,0.00,VWS V14.01,2013-09-15 19:23:00,
2013-09-15 14:28:00,91.8,69.3,29.96,SSE,164,4.0,12.0,48,0.00,,SCT044,0.00,VWS V14.01,2013-09-15 19:28:00,
2013-09-15 14:33:00,91.8,68.7,29.95,SE,128,1.0,12.0,47,0.00,,SCT044,0.00,VWS V14.01,2013-09-15 19:33:00,
2013-09-15 14:38:00,92.1,69.0,29.95,ESE,112,5.0,8.0,47,0.00,,SCT044,0.00,VWS V14.01,2013-09-15 19:38:00,
2013-09-15 14:43:00,91.8,69.3,29.95,East,91,5.0,11.0,48,0.00,,SCT044,0.00,VWS V14.01,2013-09-15 19:43:00,
2013-09-15 14:48:00,92.1,68.4,29.95,NE,55,0.0,7.0,46,0.00,,SCT044,0.00,VWS V14.01,2013-09-15 19:48:00,
2013-09-15 14:53:00,92.1,69.0,29.95,SE,126,6.0,10.0,47,0.00,,SCT044,0.00,VWS V14.01,2013-09-15 19:53:00,
2013-09-15 14:58:00,91.8,68.7,29.95,ESE,123,5.0,11.0,47,0.00,,SCT075,0.00,VWS V14.01,2013-09-15 19:58:00,
2013-09-15 15:03:00,92.1,69.0,29.94,NW,317,3.0,11.0,47,0.00,,SCT075,0.00,VWS V14.01,2013-09-15 20:03:00,
2013-09-15 15:08:00,92.7,68.9,29.94,SE,130,9.0,10.0,46,0.00,,SCT075,0.00,VWS V14.01,2013-09-15 20:08:00,
2013-09-15 15:13:00,92.5,70.0,29.94,ESE,116,4.0,12.0,48,0.00,,SCT075,0.00,VWS V14.01,2013-09-15 20:13:00,
2013-09-15 15:18:00,92.1,68.4,29.94,ESE,104,9.0,10.0,46,0.00,,SCT075,0.00,VWS V14.01,2013-09-15 20:18:00,
2013-09-15 15:23:00,91.8,68.1,29.94,East,98,7.0,11.0,46,0.00,,SCT075,0.00,VWS V14.01,2013-09-15 20:23:00,
2013-09-15 15:28:00,92.1,67.7,29.94,East,88,7.0,10.0,45,0.00,,SCT075,0.00,VWS V14.01,2013-09-15 20:28:00,
2013-09-15 15:33:00,92.1,67.7,29.93,ESE,122,5.0,12.0,45,0.00,,SCT075,0.00,VWS V14.01,2013-09-15 20:33:00,
2013-09-15 15:38:00,92.5,68.7,29.93,East,101,5.0,9.0,46,0.00,,SCT075,0.00,VWS V14.01,2013-09-15 20:38:00,
2013-09-15 15:43:00,93.2,68.1,29.93,East,94,4.0,9.0,44,0.00,,SCT075,0.00,VWS V14.01,2013-09-15 20:43:00,
2013-09-15 15:48:00,93.4,68.2,29.93,East,94,3.0,8.0,44,0.00,,SCT075,0.00,VWS V14.01,2013-09-15 20:48:00,
2013-09-15 15:53:00,93.2,68.1,29.93,SE,139,10.0,11.0,44,0.00,,SCT075,0.00,VWS V14.01,2013-09-15 20:53:00,
2013-09-15 15:58:00,93.2,68.1,29.93,ESE,107,4.0,9.0,44,0.00,,SCT075,0.00,VWS V14.01,2013-09-15 20:58:00,
2013-09-15 16:03:00,93.6,67.8,29.93,SE,124,2.0,12.0,43,0.00,,SCT075,0.00,VWS V14.01,2013-09-15 21:03:00,
2013-09-15 16:08:00,93.8,68.6,29.93,SE,126,5.0,10.0,44,0.00,,SCT075,0.00,VWS V14.01,2013-09-15 21:08:00,
2013-09-15 16:13:00,94.3,68.4,29.93,East,79,9.0,10.0,43,0.00,,SCT075,0.00,VWS V14.01,2013-09-15 21:13:00,
2013-09-15 16:18:00,93.6,67.1,29.93,ESE,109,5.0,11.0,42,0.00,,SCT070,0.00,VWS V14.01,2013-09-15 21:18:00,
2013-09-15 16:23:00,92.9,67.8,29.93,SE,136,7.0,11.0,44,0.00,,SCT070,0.00,VWS V14.01,2013-09-15 21:23:00,
2013-09-15 16:28:00,92.7,66.9,29.93,ESE,123,2.0,13.0,43,0.00,,SCT070,0.00,VWS V14.01,2013-09-15 21:28:00,
2013-09-15 16:33:00,92.3,66.6,29.93,SE,138,4.0,13.0,43,0.00,,SCT070,0.00,VWS V14.01,2013-09-15 21:33:00,
2013-09-15 16:38:00,92.5,67.4,29.93,ESE,105,0.0,7.0,44,0.00,,SCT070,0.00,VWS V14.01,2013-09-15 21:38:00,